大分 の空港の天気 - METARとTAF

大分空港 ( RJFO / OIT ) - 大分県武蔵町
飛行場実況気象(Metar)
観測時間04/26 07:00 JST (04/25 22:00 UTC)
風向・風速北西 3m/s
視程10km以上
天気現象
少しの雲 雲底高度 460m
気温11℃
湿度87%
気圧1014hPa
METARRJFO 252200Z 32005KT 9999 FEW015 BKN/// 11/09 Q1014
過去の天気等 Google飛行場航空写真 Wunderground天気予報

過去48時間のMETAR

飛行場予報(TAF)
発表時間: 4/26 02:10 JST (4/25 17:10 UTC)
予報対象時間: 26日3時 JST ~ 27日9時 JST
風向・風速北北西 3m/s
視程10km以上
少しの雲 雲底高度 910m
26日9時 JST ~ 26日11時 JST に徐々に
風向・風速北北東 5m/s
26日15時 JST ~ 26日18時 JST に徐々に
風向・風速西南西 3m/s
27日0時 JST ~ 27日3時 JST に徐々に
風向・風速西 3m/s
TAF RJFO 251710Z 2518/2700 33005KT 9999 FEW030
BECMG 2600/2602 03010KT
BECMG 2606/2609 24005KT
BECMG 2615/2618 28005KT
日本の空港のMETAR・TAFへのリンク

RJTT 東京国際空港
RJAA 新東京国際空港
RJBB 関西国際空港
RJOO 大阪空港
RJGG 中部国際空港
RJCC 新千歳空港
RJFF 福岡空港
ROAH 那覇空港


RJEC 旭川空港
RJCH 函館空港
RJCK 釧路空港
RJCM 女満別空港
RJCB 帯広空港
RJSA 青森空港
RJSS 仙台空港
RJSK 秋田空港
RJSF 福島空港
RJAH 茨城空港
RJSN 新潟空港
RJNT 富山空港
RJNK 小松飛行場
RJNS 静岡空港
RJOH 美保飛行場
RJOC 出雲空港
RJOB 岡山空港
RJOA 広島空港
RJOI 岩国飛行場
RJOT 高松空港
RJOM 松山空港
RJOK 高知空港
RJFR 北九州空港
RJFT 熊本空港
RJFU 長崎空港
RJFS 佐賀空港
RJFO 大分空港
RJFM 宮崎空港
RJFK 鹿児島空港
ROIG 石垣島空港
RJTY 横田飛行場
ROTM 普天間飛行場
RODN 嘉手納飛行場